createdAt,value
2022-11-17T05:53:14.116Z,78.79
2022-11-17T05:58:27.290Z,80.06
2022-11-17T06:03:38.132Z,81.65
2022-11-17T06:08:42.593Z,82.22
2022-11-17T06:13:45.394Z,82.56
2022-11-17T06:19:00.986Z,82.99
2022-11-17T06:24:06.984Z,82.70
2022-11-17T06:29:12.511Z,82.80
2022-11-17T06:34:15.416Z,83.60
2022-11-17T06:39:18.243Z,82.81
2022-11-17T06:44:21.043Z,83.99
2022-11-17T06:49:23.893Z,82.86
2022-11-17T06:54:26.803Z,83.84
2022-11-17T06:59:30.012Z,83.25
2022-11-17T07:04:32.907Z,83.65
2022-11-17T07:09:36.628Z,83.96
2022-11-17T07:14:39.481Z,83.71
2022-11-17T07:19:42.359Z,84.72
2022-11-17T07:24:45.298Z,84.97
2022-11-17T07:29:48.127Z,85.18
2022-11-17T07:34:51.394Z,85.20
2022-11-17T07:39:54.326Z,85.64
2022-11-17T07:44:57.189Z,85.73
2022-11-17T07:50:00.788Z,85.90
2022-11-17T07:55:03.709Z,85.92
2022-11-17T08:00:07.230Z,85.50
2022-11-17T08:05:17.562Z,85.64
2022-11-17T08:10:20.622Z,85.89
2022-11-17T08:15:23.483Z,85.68
2022-11-17T08:20:27.921Z,85.28
2022-11-17T08:25:32.136Z,85.12
2022-11-17T08:30:36.181Z,84.12
2022-11-17T08:35:39.073Z,83.82
2022-11-17T08:40:42.877Z,83.44
2022-11-17T08:45:45.644Z,83.64
2022-11-17T08:50:48.925Z,83.17
2022-11-17T08:55:52.294Z,83.38
2022-11-17T09:00:57.601Z,84.27
2022-11-17T09:06:06.425Z,84.72
2022-11-17T09:11:11.505Z,84.99
2022-11-17T09:16:15.367Z,85.32
2022-11-17T09:21:18.205Z,85.01
2022-11-17T09:26:21.152Z,85.06
2022-11-17T09:31:24.084Z,85.67
2022-11-17T09:36:27.241Z,85.96
2022-11-17T09:41:41.226Z,86.07
2022-11-17T09:46:56.655Z,86.28
2022-11-17T09:52:16.150Z,86.37
2022-11-17T09:57:27.739Z,86.98
2022-11-17T10:02:30.931Z,87.04
2022-11-17T10:07:36.099Z,87.36
2022-11-17T10:12:47.908Z,87.24
2022-11-17T10:17:51.740Z,86.35
2022-11-17T10:22:56.049Z,87.16
2022-11-17T10:27:58.839Z,87.37
2022-11-17T10:33:05.752Z,86.82
2022-11-17T10:38:08.704Z,86.46
2022-11-17T10:43:14.484Z,87.05
2022-11-17T10:48:36.903Z,86.99
2022-11-17T10:53:46.807Z,86.60
2022-11-17T10:58:59.424Z,86.81
2022-11-17T11:04:04.078Z,87.25
2022-11-17T11:09:20.519Z,87.22
2022-11-17T11:14:33.611Z,87.62
2022-11-17T11:19:36.551Z,87.06
2022-11-17T11:24:50.308Z,87.49
2022-11-17T11:30:01.705Z,87.46
2022-11-17T11:35:33.745Z,88.11
2022-11-17T11:40:40.519Z,88.00
2022-11-17T11:46:01.710Z,88.98
2022-11-17T11:51:11.947Z,89.19
2022-11-17T11:56:19.001Z,88.38
2022-11-17T12:01:23.472Z,88.77
2022-11-17T12:06:41.036Z,88.80
2022-11-17T12:12:03.380Z,88.90
2022-11-17T12:17:07.944Z,88.81
2022-11-17T12:22:23.136Z,89.39
2022-11-17T12:27:34.982Z,89.39
2022-11-17T12:32:46.883Z,89.27
2022-11-17T12:37:49.731Z,89.31
2022-11-17T12:43:17.160Z,89.78
2022-11-17T12:48:35.128Z,89.33
2022-11-17T12:54:04.713Z,89.63
2022-11-17T12:59:32.191Z,89.45
2022-11-17T13:04:49.287Z,89.27
2022-11-17T13:09:58.360Z,88.99
2022-11-17T13:15:03.197Z,89.24
2022-11-17T13:20:27.198Z,89.03
2022-11-17T13:25:30.093Z,89.28
2022-11-17T13:30:33.695Z,89.60
2022-11-17T13:35:36.980Z,89.13
